Time;durP1;ratioP1;P1;durP2;ratioP2;P2;SDS_P1;SDS_P2;PMS_P1;PMS_P2;Temp;Humidity;BMP_temperature;BMP_pressure;BME280_temperature;BME280_humidity;BME280_pressure;Samples;Min_cycle;Max_cycle;Signal;HPM_P1;HPM_P2
2022/11/22 00:01:15;;;;;;;21.75;15.25;;;1.90;99.90;;;;;;6246006;23;20268;-72
2022/11/22 00:03:42;;;;;;;22.00;14.27;;;2.00;99.90;;;;;;6246056;22;20717;-70
2022/11/22 00:06:09;;;;;;;25.90;17.15;;;2.00;99.90;;;;;;6247028;23;20242;-69
2022/11/22 00:08:36;;;;;;;22.50;16.02;;;2.10;99.90;;;;;;6246034;23;20270;-70
2022/11/22 00:11:03;;;;;;;23.75;16.25;;;2.10;99.90;;;;;;6245507;23;20160;-70
2022/11/22 00:13:30;;;;;;;23.67;16.48;;;2.10;99.90;;;;;;6246648;22;20233;-69
2022/11/22 00:15:59;;;;;;;21.75;15.43;;;2.10;99.90;;;;;;6246186;23;20590;-70
2022/11/22 00:18:27;;;;;;;28.40;16.70;;;2.10;99.90;;;;;;6246640;23;20238;-70
2022/11/22 00:20:54;;;;;;;25.85;16.15;;;2.20;99.90;;;;;;6245344;23;20163;-70
2022/11/22 00:23:23;;;;;;;20.98;14.60;;;2.10;99.90;;;;;;6245990;22;20205;-71
2022/11/22 00:25:50;;;;;;;26.00;16.33;;;2.10;99.90;;;;;;6246350;23;20163;-70
2022/11/22 00:28:17;;;;;;;21.23;14.93;;;2.10;99.90;;;;;;6246149;23;20266;-71
2022/11/22 00:30:43;;;;;;;26.77;15.85;;;2.20;99.90;;;;;;6245649;23;20198;-71
2022/11/22 00:33:10;;;;;;;23.35;15.15;;;2.20;99.90;;;;;;6246189;22;20512;-70
2022/11/22 00:35:39;;;;;;;21.35;15.15;;;2.20;99.90;;;;;;6246011;23;20191;-70
2022/11/22 00:38:06;;;;;;;20.35;14.85;;;2.20;99.90;;;;;;6245758;23;20238;-69
2022/11/22 00:40:33;;;;;;;23.83;16.75;;;2.20;99.90;;;;;;6245391;23;20159;-70
2022/11/22 00:43:00;;;;;;;23.42;15.70;;;2.20;99.90;;;;;;6253579;22;20329;-82
2022/11/22 00:45:26;;;;;;;25.38;15.50;;;2.20;99.90;;;;;;6259998;23;20229;-83
2022/11/22 00:50:36;;;;;;;22.70;15.75;;;2.20;99.90;;;;;;6258495;23;20167;-84
2022/11/22 00:53:06;;;;;;;29.42;18.50;;;2.20;99.90;;;;;;6255720;22;20199;-84
2022/11/22 00:55:36;;;;;;;27.75;16.60;;;2.20;99.90;;;;;;6262275;23;20197;-83
2022/11/22 00:58:05;;;;;;;28.52;17.80;;;2.20;99.90;;;;;;6266028;23;20171;-83
2022/11/22 01:00:32;;;;;;;25.45;16.38;;;2.10;99.90;;;;;;6264313;23;20198;-85
2022/11/22 01:03:00;;;;;;;25.80;19.42;;;2.10;99.90;;;;;;6266199;22;20211;-83
2022/11/22 01:05:30;;;;;;;28.80;17.70;;;2.10;99.90;;;;;;6262925;23;20168;-84
2022/11/22 01:07:57;;;;;;;30.65;18.13;;;2.10;99.90;;;;;;6260866;23;20229;-85
2022/11/22 01:10:25;;;;;;;34.03;18.13;;;2.00;99.90;;;;;;6256675;23;20584;-84
2022/11/22 01:12:52;;;;;;;29.50;20.40;;;2.20;99.90;;;;;;6256244;22;20199;-83
2022/11/22 01:15:19;;;;;;;35.10;21.38;;;2.10;99.90;;;;;;6256106;23;20217;-84
2022/11/22 01:17:46;;;;;;;26.15;17.40;;;2.10;99.90;;;;;;6256577;23;20520;-85
2022/11/22 01:20:13;;;;;;;29.75;18.38;;;2.20;99.90;;;;;;6254436;23;20186;-83
2022/11/22 01:22:41;;;;;;;30.85;18.50;;;2.20;99.90;;;;;;6257109;22;20260;-84
2022/11/22 01:25:09;;;;;;;32.70;18.75;;;2.20;99.90;;;;;;6258690;23;20187;-85
2022/11/22 01:27:37;;;;;;;32.45;18.27;;;2.20;99.90;;;;;;6257262;23;20238;-84
2022/11/22 01:30:05;;;;;;;35.05;20.17;;;2.20;99.90;;;;;;6257338;23;20236;-83
2022/11/22 01:32:32;;;;;;;37.08;20.50;;;2.20;99.90;;;;;;6257626;22;20199;-84
2022/11/22 01:34:59;;;;;;;36.15;19.65;;;2.10;99.90;;;;;;6258375;23;20222;-84
2022/11/22 01:37:26;;;;;;;36.50;19.85;;;2.10;99.90;;;;;;6261244;23;20210;-83
2022/11/22 01:39:53;;;;;;;35.95;19.08;;;2.10;99.90;;;;;;6261068;23;20175;-84
2022/11/22 01:42:20;;;;;;;33.60;20.55;;;2.20;99.90;;;;;;6260531;22;20210;-85
2022/11/22 01:44:50;;;;;;;43.53;20.63;;;2.20;99.90;;;;;;6256028;23;20183;-84
2022/11/22 01:47:21;;;;;;;37.20;19.15;;;2.10;99.90;;;;;;6256233;23;20229;-84
2022/11/22 01:49:52;;;;;;;38.55;22.17;;;2.10;99.90;;;;;;6254961;23;20183;-84
2022/11/22 01:52:23;;;;;;;38.42;20.60;;;2.10;99.90;;;;;;6256459;22;20202;-85
2022/11/22 01:54:52;;;;;;;43.83;23.52;;;2.20;99.90;;;;;;6256444;23;20176;-84
2022/11/22 01:57:24;;;;;;;49.70;28.58;;;2.10;99.90;;;;;;6255343;23;20174;-85
2022/11/22 01:59:56;;;;;;;57.58;29.60;;;2.20;99.90;;;;;;6254284;23;20159;-84
2022/11/22 02:02:24;;;;;;;43.75;21.55;;;2.20;99.90;;;;;;6254435;22;20661;-85
2022/11/22 02:04:53;;;;;;;47.00;22.58;;;2.20;99.90;;;;;;6254777;23;20186;-84
2022/11/22 02:07:24;;;;;;;50.63;21.95;;;2.20;99.90;;;;;;6256222;23;20233;-85
2022/11/22 02:09:52;;;;;;;55.30;24.67;;;2.20;99.90;;;;;;6256221;23;20210;-85
2022/11/22 02:12:23;;;;;;;48.65;23.73;;;2.30;99.90;;;;;;6256739;22;20646;-84
2022/11/22 02:14:52;;;;;;;50.03;21.58;;;2.30;99.90;;;;;;6255440;23;20595;-85
2022/11/22 02:17:18;;;;;;;48.95;24.15;;;2.30;99.90;;;;;;6251991;23;20178;-85
2022/11/22 02:19:47;;;;;;;54.10;24.45;;;2.20;99.90;;;;;;6251532;23;20599;-84
2022/11/22 02:22:24;;;;;;;62.70;27.15;;;2.30;99.90;;;;;;6250767;22;20238;-84
2022/11/22 02:24:56;;;;;;;51.75;25.02;;;2.40;99.90;;;;;;6248973;23;20163;-84
2022/11/22 02:27:25;;;;;;;54.55;23.50;;;2.30;99.90;;;;;;6251482;23;20187;-83
2022/11/22 02:29:52;;;;;;;56.47;26.80;;;2.40;99.90;;;;;;6264212;22;20179;-84
2022/11/22 02:32:19;;;;;;;49.38;23.55;;;2.40;99.90;;;;;;6272142;22;20213;-84
2022/11/22 02:34:48;;;;;;;57.97;25.60;;;2.30;99.90;;;;;;6272624;22;20227;-83
2022/11/22 02:37:18;;;;;;;67.28;26.25;;;2.20;99.90;;;;;;6268243;23;20186;-83
2022/11/22 02:39:48;;;;;;;54.20;25.73;;;2.20;99.90;;;;;;6266012;23;20201;-83
2022/11/22 02:42:15;;;;;;;59.60;24.33;;;2.30;99.90;;;;;;6250855;22;20255;-84
2022/11/22 02:44:43;;;;;;;58.25;27.25;;;2.30;99.90;;;;;;6253080;23;20178;-84
2022/11/22 02:47:10;;;;;;;57.97;26.05;;;2.30;99.90;;;;;;6252810;23;20182;-84
2022/11/22 02:49:36;;;;;;;60.20;27.08;;;2.30;99.90;;;;;;6252300;23;20203;-84
2022/11/22 02:52:03;;;;;;;51.85;28.40;;;2.30;99.90;;;;;;6253107;22;20198;-84
2022/11/22 02:54:30;;;;;;;62.10;27.38;;;2.30;99.90;;;;;;6252398;23;20576;-84
2022/11/22 02:56:57;;;;;;;51.35;27.15;;;2.40;99.90;;;;;;6252096;23;20258;-85
2022/11/22 02:59:24;;;;;;;74.63;28.25;;;2.30;99.90;;;;;;6252024;23;20682;-84
2022/11/22 03:01:52;;;;;;;67.93;27.35;;;2.40;99.90;;;;;;6254233;22;20205;-84
2022/11/22 03:04:25;;;;;;;65.50;27.27;;;2.40;99.90;;;;;;6259003;23;20179;-83
2022/11/22 03:06:54;;;;;;;66.65;28.13;;;2.50;99.90;;;;;;6256151;23;20662;-84
2022/11/22 03:09:21;;;;;;;69.32;29.70;;;2.50;99.90;;;;;;6252523;23;20250;-86
2022/11/22 03:11:48;;;;;;;64.95;27.88;;;2.40;99.90;;;;;;6251059;22;20705;-84
2022/11/22 03:14:15;;;;;;;70.47;31.55;;;2.40;99.90;;;;;;6252411;23;20166;-84
2022/11/22 03:16:42;;;;;;;77.38;30.20;;;2.40;99.90;;;;;;6254270;23;20261;-85
2022/11/22 03:19:11;;;;;;;68.03;29.40;;;2.40;99.90;;;;;;6254408;23;20174;-84
2022/11/22 03:21:38;;;;;;;57.22;26.67;;;2.40;99.90;;;;;;6253480;22;20282;-84
2022/11/22 03:24:06;;;;;;;68.65;31.40;;;2.50;99.90;;;;;;6254161;23;20171;-84
2022/11/22 03:26:34;;;;;;;55.97;27.88;;;2.50;99.90;;;;;;6254822;23;20183;-84
2022/11/22 03:29:01;;;;;;;64.95;26.88;;;2.40;99.90;;;;;;6254127;23;20278;-83
2022/11/22 03:31:28;;;;;;;62.17;31.30;;;2.50;99.90;;;;;;6255532;22;20229;-84
2022/11/22 03:33:56;;;;;;;65.78;28.45;;;2.50;99.90;;;;;;6255187;23;20682;-84
2022/11/22 03:36:24;;;;;;;59.08;26.92;;;2.40;99.90;;;;;;6255237;23;20175;-84
2022/11/22 03:38:51;;;;;;;63.13;29.75;;;2.60;99.90;;;;;;6253633;23;20175;-84
2022/11/22 03:41:18;;;;;;;66.70;27.92;;;2.70;99.90;;;;;;6253322;22;20535;-84
2022/11/22 03:43:45;;;;;;;51.17;25.80;;;2.40;99.90;;;;;;6256687;23;20217;-84
2022/11/22 03:46:14;;;;;;;56.42;26.02;;;2.60;99.90;;;;;;6254004;23;20474;-84
2022/11/22 03:48:42;;;;;;;49.65;28.13;;;2.60;99.90;;;;;;6254225;23;20194;-84
2022/11/22 03:51:09;;;;;;;57.28;26.80;;;2.70;99.90;;;;;;6256581;22;20223;-84
2022/11/22 03:53:37;;;;;;;55.53;27.92;;;2.70;99.90;;;;;;6255827;23;20665;-85
2022/11/22 03:56:05;;;;;;;52.85;26.15;;;2.60;99.90;;;;;;6257475;23;20262;-84
2022/11/22 03:58:32;;;;;;;56.65;26.77;;;2.70;99.90;;;;;;6256336;23;20209;-84
2022/11/22 04:00:59;;;;;;;54.22;28.48;;;2.70;99.90;;;;;;6254092;22;20258;-85
2022/11/22 04:03:26;;;;;;;51.60;27.15;;;2.70;99.90;;;;;;6254637;23;20206;-84
2022/11/22 04:05:53;;;;;;;66.68;31.90;;;2.60;99.90;;;;;;6255295;23;20247;-84
2022/11/22 04:08:20;;;;;;;52.40;25.95;;;2.70;99.90;;;;;;6253726;23;20182;-83
2022/11/22 04:10:50;;;;;;;60.42;27.45;;;2.70;99.90;;;;;;6253094;22;20235;-84
2022/11/22 04:13:17;;;;;;;48.20;26.98;;;2.70;99.90;;;;;;6253490;23;20253;-83
2022/11/22 04:15:43;;;;;;;53.72;26.60;;;2.70;99.90;;;;;;6252223;23;20210;-84
2022/11/22 04:18:10;;;;;;;57.92;27.77;;;2.90;99.90;;;;;;6252197;23;20500;-85
2022/11/22 04:23:23;;;;;;;46.47;26.67;;;2.90;99.90;;;;;;6253902;23;20222;-84
2022/11/22 04:25:52;;;;;;;51.22;25.65;;;2.70;99.90;;;;;;6251738;23;20203;-84
2022/11/22 04:28:21;;;;;;;57.17;27.98;;;2.70;99.90;;;;;;6252242;23;20174;-84
2022/11/22 04:33:32;;;;;;;45.97;25.95;;;2.80;99.90;;;;;;6267986;23;20186;-83
2022/11/22 04:35:59;;;;;;;49.28;26.52;;;2.60;99.90;;;;;;6269545;22;20155;-84
2022/11/22 04:38:26;;;;;;;55.97;26.02;;;2.80;99.90;;;;;;6269190;23;20174;-83
2022/11/22 04:40:55;;;;;;;55.88;27.02;;;2.80;99.90;;;;;;6266255;22;20186;-84
2022/11/22 04:46:08;;;;;;;55.40;26.63;;;2.80;99.90;;;;;;6273120;22;20162;-83
2022/11/22 04:48:35;;;;;;;51.88;26.35;;;2.90;99.90;;;;;;6273118;22;20162;-84
2022/11/22 04:53:47;;;;;;;49.95;23.48;;;2.70;99.90;;;;;;6263956;23;20190;-84
2022/11/22 04:56:15;;;;;;;60.53;25.02;;;2.90;99.90;;;;;;6267303;23;20179;-83
2022/11/22 04:58:42;;;;;;;48.75;25.25;;;2.70;99.90;;;;;;6269052;23;20185;-83
2022/11/22 05:01:09;;;;;;;51.80;28.63;;;2.80;99.90;;;;;;6260633;22;20261;-83
2022/11/22 05:03:36;;;;;;;46.05;25.67;;;2.80;99.90;;;;;;6257345;23;20202;-84
2022/11/22 05:06:04;;;;;;;51.53;27.40;;;2.80;99.90;;;;;;6255439;23;20254;-85
2022/11/22 05:08:31;;;;;;;51.40;25.25;;;2.80;99.90;;;;;;6255709;23;20192;-84
2022/11/22 05:10:58;;;;;;;51.72;25.83;;;2.80;99.90;;;;;;6256560;22;20217;-85
2022/11/22 05:13:29;;;;;;;51.78;26.95;;;2.80;99.90;;;;;;6259656;23;20209;-84
2022/11/22 05:15:57;;;;;;;55.15;26.45;;;2.70;99.90;;;;;;6267715;23;20171;-84
2022/11/22 05:18:25;;;;;;;50.03;27.45;;;2.70;99.90;;;;;;6261302;23;20175;-85
2022/11/22 05:20:52;;;;;;;53.78;26.30;;;2.80;99.90;;;;;;6260327;22;20198;-83
2022/11/22 05:26:05;;;;;;;44.45;25.00;;;2.80;99.90;;;;;;6264229;23;20158;-84
2022/11/22 05:28:35;;;;;;;51.53;25.67;;;2.80;99.90;;;;;;6264302;23;20202;-84
2022/11/22 05:31:07;;;;;;;47.40;24.65;;;2.80;99.90;;;;;;6263276;22;20202;-84
2022/11/22 05:33:36;;;;;;;51.20;26.75;;;2.80;99.90;;;;;;6271563;22;20215;-84
2022/11/22 05:36:03;;;;;;;45.97;24.20;;;2.90;99.90;;;;;;6270523;22;20163;-84
2022/11/22 05:38:30;;;;;;;52.53;26.80;;;2.90;99.90;;;;;;6270846;22;20175;-84
2022/11/22 05:40:57;;;;;;;48.72;25.25;;;2.90;99.90;;;;;;6271616;22;20167;-84
2022/11/22 05:43:24;;;;;;;52.17;27.73;;;2.90;99.90;;;;;;6270027;22;20155;-85
2022/11/22 05:45:52;;;;;;;52.65;24.55;;;2.90;99.90;;;;;;6266500;22;20190;-83
2022/11/22 05:48:19;;;;;;;49.70;25.08;;;2.80;99.90;;;;;;6261699;23;20266;-84
2022/11/22 05:50:46;;;;;;;59.72;25.42;;;2.80;99.90;;;;;;6260952;22;20206;-84
2022/11/22 05:53:13;;;;;;;53.60;24.38;;;2.80;99.90;;;;;;6261268;23;20194;-85
2022/11/22 05:55:41;;;;;;;46.78;24.20;;;2.90;99.90;;;;;;6263103;23;20179;-85
2022/11/22 05:58:08;;;;;;;53.58;27.65;;;2.80;99.90;;;;;;6264645;23;20179;-84
2022/11/22 06:00:34;;;;;;;44.58;23.50;;;2.80;99.90;;;;;;6262095;23;20618;-84
2022/11/22 06:03:04;;;;;;;52.15;25.27;;;2.90;99.90;;;;;;6258317;22;20202;-84
2022/11/22 06:05:31;;;;;;;52.30;25.98;;;2.80;99.90;;;;;;6258310;23;20179;-84
2022/11/22 06:08:00;;;;;;;53.70;29.00;;;2.90;99.90;;;;;;6259756;23;20182;-84
2022/11/22 06:10:27;;;;;;;54.25;27.60;;;2.90;99.90;;;;;;6267484;23;20234;-84
2022/11/22 06:12:55;;;;;;;59.22;27.33;;;2.90;99.90;;;;;;6268169;22;20201;-83
2022/11/22 06:15:22;;;;;;;56.53;26.75;;;2.70;99.90;;;;;;6269392;23;20209;-83
2022/11/22 06:17:49;;;;;;;41.40;23.83;;;2.90;99.90;;;;;;6265098;23;20178;-84
2022/11/22 06:20:17;;;;;;;47.42;24.88;;;2.90;99.90;;;;;;6268170;23;20173;-84
2022/11/22 06:22:44;;;;;;;40.60;23.92;;;2.90;99.90;;;;;;6269219;22;20198;-84
2022/11/22 06:25:11;;;;;;;45.55;26.08;;;2.90;99.90;;;;;;6268898;23;20189;-85
2022/11/22 06:27:58;;;;;;;48.78;25.73;;;2.90;99.90;;;;;;6269835;22;20171;-86
2022/11/22 06:30:35;;;;;;;49.75;24.17;;;3.00;99.90;;;;;;6268254;23;20171;-85
2022/11/22 06:33:07;;;;;;;44.45;24.88;;;2.90;99.90;;;;;;6269169;22;20195;-84
2022/11/22 06:35:35;;;;;;;45.63;26.17;;;3.00;99.90;;;;;;6269747;22;20174;-85
2022/11/22 06:38:02;;;;;;;46.03;26.40;;;3.00;99.90;;;;;;6266611;23;20171;-82
2022/11/22 06:40:29;;;;;;;45.53;23.58;;;3.00;99.90;;;;;;6266601;23;20185;-82
2022/11/22 06:45:32;;;;;;;42.65;26.50;;;3.00;99.90;;;;;;6261876;22;20488;-77
2022/11/22 06:47:59;;;;;;;49.08;25.60;;;3.00;99.90;;;;;;6263035;23;20174;-75
2022/11/22 06:50:26;;;;;;;48.55;25.45;;;3.00;99.90;;;;;;6256020;23;20182;-76
2022/11/22 06:52:56;;;;;;;48.42;24.63;;;3.00;99.90;;;;;;6253536;23;20305;-79
2022/11/22 06:55:23;;;;;;;51.75;27.08;;;3.10;99.90;;;;;;6252521;23;20209;-73
2022/11/22 06:57:52;;;;;;;50.60;27.40;;;3.10;99.90;;;;;;6260996;22;20163;-74
2022/11/22 07:00:19;;;;;;;49.72;26.52;;;3.10;99.90;;;;;;6260212;22;20170;-75
2022/11/22 07:02:46;;;;;;;51.97;26.92;;;3.10;99.90;;;;;;6260496;22;20210;-76
2022/11/22 07:05:13;;;;;;;51.85;25.70;;;3.10;99.90;;;;;;6260722;22;20422;-75
2022/11/22 07:07:41;;;;;;;48.65;25.75;;;3.10;99.90;;;;;;6261062;22;20150;-75
2022/11/22 07:10:10;;;;;;;51.00;25.20;;;3.10;99.90;;;;;;6260353;22;20744;-75
2022/11/22 07:12:37;;;;;;;40.85;25.40;;;3.10;99.90;;;;;;6260917;22;20199;-74
2022/11/22 07:15:04;;;;;;;45.88;25.70;;;3.10;99.90;;;;;;6260881;22;20147;-76
2022/11/22 07:17:35;;;;;;;51.95;27.02;;;3.20;99.90;;;;;;6261312;22;20202;-82
2022/11/22 07:20:12;;;;;;;52.47;26.55;;;3.20;99.90;;;;;;6262993;23;20171;-83
2022/11/22 07:22:39;;;;;;;50.33;25.92;;;3.20;99.90;;;;;;6264331;22;20190;-84
2022/11/22 07:25:07;;;;;;;51.00;25.70;;;3.20;99.90;;;;;;6263606;23;20179;-81
2022/11/22 07:27:35;;;;;;;43.97;24.88;;;3.30;99.90;;;;;;6262805;23;20227;-80
2022/11/22 07:32:36;;;;;;;55.45;27.33;;;3.20;99.90;;;;;;6246867;23;20189;-73
2022/11/22 07:35:03;;;;;;;52.60;27.90;;;3.20;99.90;;;;;;6247622;23;20191;-75
2022/11/22 07:37:31;;;;;;;57.78;27.27;;;3.30;99.90;;;;;;6247251;23;20182;-74
2022/11/22 07:39:58;;;;;;;48.42;26.25;;;3.30;99.90;;;;;;6246314;23;20159;-74
2022/11/22 07:42:25;;;;;;;54.88;27.77;;;3.30;99.90;;;;;;6247237;23;20167;-76
2022/11/22 07:44:53;;;;;;;58.17;27.65;;;3.30;99.90;;;;;;6247438;23;20170;-74
2022/11/22 07:47:20;;;;;;;53.65;28.38;;;3.40;99.90;;;;;;6247395;23;20242;-74
2022/11/22 07:49:47;;;;;;;55.65;26.50;;;3.40;99.90;;;;;;6246127;23;20190;-75
2022/11/22 07:52:14;;;;;;;46.85;26.80;;;3.40;99.90;;;;;;6247167;23;20601;-75
2022/11/22 07:54:41;;;;;;;46.55;26.60;;;3.50;99.90;;;;;;6246803;23;20163;-75
2022/11/22 07:57:08;;;;;;;51.42;26.80;;;3.50;99.90;;;;;;6247100;23;20167;-74
2022/11/22 07:59:35;;;;;;;53.95;28.05;;;3.60;99.90;;;;;;6245896;23;20274;-74
2022/11/22 08:02:04;;;;;;;57.03;28.00;;;3.60;99.90;;;;;;6246869;23;20193;-74
2022/11/22 08:04:31;;;;;;;46.35;25.40;;;3.70;99.90;;;;;;6247354;23;20274;-73
2022/11/22 08:06:57;;;;;;;48.47;26.67;;;3.70;99.90;;;;;;6246787;23;20163;-74
2022/11/22 08:09:24;;;;;;;44.20;27.63;;;3.70;99.90;;;;;;6246207;23;20213;-73
2022/11/22 08:11:51;;;;;;;50.95;26.63;;;3.70;99.90;;;;;;6246021;23;20205;-74
2022/11/22 08:14:18;;;;;;;50.47;26.08;;;3.70;99.90;;;;;;6247054;23;20238;-73
2022/11/22 08:16:45;;;;;;;45.58;25.90;;;3.70;99.90;;;;;;6246874;23;20238;-74
2022/11/22 08:19:16;;;;;;;51.13;28.55;;;3.70;99.90;;;;;;6246931;23;20163;-74
2022/11/22 08:21:43;;;;;;;55.03;25.30;;;3.70;99.90;;;;;;6245467;23;20163;-73
2022/11/22 08:24:10;;;;;;;56.13;28.15;;;3.80;99.90;;;;;;6246295;23;20316;-73
2022/11/22 08:26:37;;;;;;;48.45;24.55;;;3.80;99.90;;;;;;6246288;23;20202;-73
2022/11/22 08:29:05;;;;;;;47.95;26.40;;;3.80;99.90;;;;;;6246791;23;20246;-74
2022/11/22 08:31:32;;;;;;;41.92;26.00;;;3.80;99.90;;;;;;6245337;23;20253;-73
2022/11/22 08:33:59;;;;;;;54.47;29.25;;;3.90;99.90;;;;;;6246193;23;20282;-73
2022/11/22 08:36:27;;;;;;;56.53;27.33;;;3.90;99.90;;;;;;6246746;23;20163;-73
2022/11/22 08:38:54;;;;;;;46.65;26.83;;;4.00;99.90;;;;;;6246188;23;20163;-74
2022/11/22 08:41:21;;;;;;;50.03;27.38;;;4.00;99.90;;;;;;6245277;23;20167;-73
2022/11/22 08:43:50;;;;;;;47.67;24.45;;;4.10;99.90;;;;;;6245999;23;20274;-71
2022/11/22 08:46:17;;;;;;;44.50;25.65;;;4.10;99.90;;;;;;6246214;23;20182;-72
2022/11/22 08:48:44;;;;;;;47.97;26.63;;;4.20;99.90;;;;;;6246717;23;20163;-73
2022/11/22 08:51:13;;;;;;;45.53;24.13;;;4.10;99.90;;;;;;6245364;23;20557;-75
2022/11/22 08:53:43;;;;;;;52.65;27.30;;;4.10;99.90;;;;;;6247183;23;20210;-73
2022/11/22 08:56:13;;;;;;;46.72;25.00;;;4.10;99.90;;;;;;6246458;23;20242;-73
2022/11/22 08:58:41;;;;;;;44.90;26.40;;;4.10;99.90;;;;;;6246837;23;20213;-73
2022/11/22 09:01:10;;;;;;;44.60;24.23;;;4.10;99.90;;;;;;6245707;23;20187;-74
2022/11/22 09:03:37;;;;;;;41.65;24.20;;;4.20;99.90;;;;;;6246043;23;20218;-74
2022/11/22 09:06:06;;;;;;;42.05;25.83;;;4.20;99.90;;;;;;6245991;23;20520;-73
2022/11/22 09:08:34;;;;;;;43.17;24.13;;;4.20;99.90;;;;;;6245534;23;20238;-72
2022/11/22 09:11:05;;;;;;;48.17;26.67;;;4.20;99.90;;;;;;6244430;23;20507;-72
2022/11/22 09:13:32;;;;;;;43.38;22.95;;;4.30;99.90;;;;;;6244310;23;20229;-72
2022/11/22 09:16:02;;;;;;;51.30;24.08;;;4.30;99.90;;;;;;6245468;23;20178;-73
2022/11/22 09:18:28;;;;;;;45.00;26.02;;;4.30;99.90;;;;;;6245270;23;20501;-73
2022/11/22 09:20:58;;;;;;;41.97;25.48;;;4.40;99.90;;;;;;6245071;23;20166;-73
2022/11/22 09:23:25;;;;;;;36.83;22.80;;;4.50;99.90;;;;;;6246008;23;20289;-74
2022/11/22 09:25:57;;;;;;;44.13;23.60;;;4.50;99.90;;;;;;6245703;23;20163;-73
2022/11/22 09:28:26;;;;;;;39.58;22.70;;;4.40;99.90;;;;;;6245705;23;20165;-73
2022/11/22 09:30:59;;;;;;;45.45;24.95;;;4.40;99.90;;;;;;6243866;23;20598;-73
2022/11/22 09:33:26;;;;;;;39.65;24.38;;;4.50;99.90;;;;;;6245195;23;20202;-74
2022/11/22 09:35:59;;;;;;;44.40;21.17;;;4.60;99.90;;;;;;6245687;23;20163;-74
2022/11/22 09:38:26;;;;;;;41.35;21.45;;;4.50;99.90;;;;;;6245366;23;20514;-73
2022/11/22 09:40:54;;;;;;;44.78;23.40;;;4.60;99.90;;;;;;6244685;23;20205;-73
2022/11/22 09:43:33;;;;;;;41.03;21.13;;;4.50;99.90;;;;;;6245456;23;20289;-72
2022/11/22 09:46:11;;;;;;;41.67;22.98;;;4.70;99.90;;;;;;6245279;23;20241;-72
2022/11/22 09:49:06;;;;;;;34.83;22.15;;;4.70;99.90;;;;;;6245272;23;20163;-70
2022/11/22 09:51:39;;;;;;;37.83;23.02;;;4.90;99.90;;;;;;6239564;23;20199;-70
2022/11/22 09:54:10;;;;;;;35.28;21.88;;;4.80;99.90;;;;;;6245006;23;20234;-70
2022/11/22 09:56:38;;;;;;;36.15;22.20;;;4.80;99.90;;;;;;6244823;23;20234;-70
2022/11/22 09:59:11;;;;;;;36.97;21.33;;;4.80;99.90;;;;;;6244803;23;20535;-70
2022/11/22 10:01:43;;;;;;;38.03;22.08;;;4.80;99.90;;;;;;6243546;23;20175;-69
2022/11/22 10:04:14;;;;;;;33.60;21.45;;;4.90;99.90;;;;;;6244566;23;20199;-70
2022/11/22 10:06:43;;;;;;;39.90;22.45;;;5.00;99.90;;;;;;6244374;23;20242;-69
2022/11/22 10:09:30;;;;;;;33.05;20.05;;;5.10;99.90;;;;;;6244823;23;20213;-69
2022/11/22 10:12:03;;;;;;;32.90;20.30;;;5.20;99.90;;;;;;6217277;23;20267;-71
2022/11/22 10:14:40;;;;;;;32.50;20.85;;;5.40;99.90;;;;;;6244523;23;20274;-72
2022/11/22 10:17:20;;;;;;;32.10;18.70;;;5.50;99.90;;;;;;6194664;23;20235;-72
2022/11/22 10:19:58;;;;;;;33.08;19.30;;;5.70;99.90;;;;;;6218150;23;20167;-72
2022/11/22 10:22:28;;;;;;;26.88;19.38;;;5.80;99.90;;;;;;6245102;23;20160;-72
2022/11/22 10:24:56;;;;;;;35.97;21.08;;;5.70;99.90;;;;;;6245711;23;20167;-73
2022/11/22 10:27:23;;;;;;;30.60;20.30;;;5.90;99.90;;;;;;6247018;23;20909;-71
2022/11/22 10:29:58;;;;;;;30.98;19.00;;;6.00;99.90;;;;;;6247151;23;20249;-73
2022/11/22 10:32:29;;;;;;;35.15;20.25;;;6.20;99.90;;;;;;6220252;23;20188;-72
2022/11/22 10:35:20;;;;;;;34.13;22.40;;;6.50;99.90;;;;;;6246448;23;20684;-72
2022/11/22 10:37:58;;;;;;;30.52;17.77;;;6.60;99.90;;;;;;6222600;23;20174;-71
2022/11/22 10:40:35;;;;;;;26.17;16.23;;;7.00;99.90;;;;;;6246270;23;20245;-72
2022/11/22 10:43:24;;;;;;;27.10;17.05;;;7.60;99.90;;;;;;6220362;23;20253;-71
2022/11/22 10:46:06;;;;;;;24.65;16.55;;;8.00;99.90;;;;;;6222357;23;20171;-71
2022/11/22 10:48:42;;;;;;;27.90;19.75;;;8.10;99.90;;;;;;6221228;23;20271;-72
2022/11/22 10:51:19;;;;;;;25.80;19.05;;;8.10;99.90;;;;;;6245695;23;20509;-73
2022/11/22 10:53:59;;;;;;;24.63;17.02;;;7.90;99.90;;;;;;6219680;23;20591;-72
2022/11/22 10:56:32;;;;;;;26.98;18.45;;;7.90;99.90;;;;;;6220010;23;20190;-72
2022/11/22 10:59:16;;;;;;;22.70;16.98;;;7.50;99.90;;;;;;6246192;23;20184;-72
2022/11/22 11:01:52;;;;;;;23.55;16.10;;;7.50;99.90;;;;;;6218773;23;20174;-72
2022/11/22 11:04:20;;;;;;;28.88;17.05;;;7.40;99.90;;;;;;6220088;23;20274;-73
2022/11/22 11:06:51;;;;;;;25.50;17.50;;;7.40;99.90;;;;;;6246569;23;20163;-75
2022/11/22 11:09:22;;;;;;;29.95;17.85;;;7.40;99.90;;;;;;6246590;23;20249;-74
2022/11/22 11:11:51;;;;;;;23.10;16.10;;;7.40;99.90;;;;;;6245662;23;20489;-71
2022/11/22 11:14:26;;;;;;;24.67;17.80;;;7.50;99.90;;;;;;6247418;23;20230;-72
2022/11/22 11:16:55;;;;;;;27.10;17.23;;;7.40;99.90;;;;;;6246125;23;20169;-71
2022/11/22 11:19:24;;;;;;;30.23;17.45;;;7.40;99.90;;;;;;6247456;23;20189;-74
2022/11/22 11:21:59;;;;;;;29.67;18.88;;;7.40;99.90;;;;;;6246497;23;20224;-74
2022/11/22 11:24:29;;;;;;;28.35;17.95;;;7.50;99.90;;;;;;6246385;23;20201;-72
2022/11/22 11:26:58;;;;;;;26.13;16.80;;;7.50;99.90;;;;;;6246826;23;20177;-73
2022/11/22 11:29:43;;;;;;;23.63;15.88;;;7.50;99.90;;;;;;6246715;23;20204;-73
2022/11/22 11:32:16;;;;;;;19.80;14.70;;;7.50;99.90;;;;;;6219515;23;20230;-74
2022/11/22 11:34:50;;;;;;;23.17;15.23;;;7.50;99.90;;;;;;6247119;23;20205;-73
2022/11/22 11:37:23;;;;;;;21.83;14.90;;;7.50;99.90;;;;;;6246714;23;20169;-74
2022/11/22 11:39:50;;;;;;;22.40;15.20;;;7.60;99.90;;;;;;6245474;23;20248;-73
2022/11/22 11:42:26;;;;;;;21.77;14.07;;;7.60;99.90;;;;;;6246449;23;20198;-72
2022/11/22 11:44:54;;;;;;;22.95;14.68;;;7.50;99.90;;;;;;6246503;23;20189;-73
2022/11/22 11:47:33;;;;;;;27.55;16.33;;;7.40;99.90;;;;;;6246739;23;20173;-72
2022/11/22 11:50:01;;;;;;;27.10;16.65;;;7.30;99.90;;;;;;6245148;23;20701;-71
2022/11/22 11:52:30;;;;;;;24.27;15.05;;;7.40;99.90;;;;;;6246192;23;20563;-72
2022/11/22 11:54:59;;;;;;;23.00;16.50;;;7.40;99.90;;;;;;6246441;23;20166;-72
2022/11/22 11:57:29;;;;;;;24.55;15.90;;;7.50;99.90;;;;;;6246481;23;20192;-72
2022/11/22 11:59:59;;;;;;;21.17;15.75;;;7.50;99.90;;;;;;6245078;23;20664;-73
2022/11/22 12:02:33;;;;;;;19.00;13.57;;;7.50;99.90;;;;;;6246145;23;20441;-73
2022/11/22 12:05:02;;;;;;;22.42;14.20;;;7.50;99.90;;;;;;6245805;23;20633;-73
2022/11/22 12:07:42;;;;;;;18.80;14.55;;;7.60;99.90;;;;;;6246202;23;20597;-73
2022/11/22 12:10:28;;;;;;;18.30;13.48;;;7.60;99.90;;;;;;6245333;23;20170;-72
2022/11/22 12:13:01;;;;;;;20.90;12.60;;;7.60;99.90;;;;;;6246772;23;20208;-72
2022/11/22 12:15:39;;;;;;;19.95;14.63;;;7.60;99.90;;;;;;6246605;23;20166;-73
2022/11/22 12:18:22;;;;;;;24.63;13.32;;;7.60;99.90;;;;;;6219934;23;20553;-72
2022/11/22 12:20:57;;;;;;;20.17;13.55;;;7.60;99.90;;;;;;6219036;23;20238;-73
2022/11/22 12:23:29;;;;;;;23.20;13.98;;;7.80;99.90;;;;;;6245620;23;20695;-72
2022/11/22 12:25:58;;;;;;;19.77;13.73;;;7.80;99.90;;;;;;6246311;23;20166;-74
2022/11/22 12:28:27;;;;;;;21.13;14.07;;;7.80;99.90;;;;;;6246926;23;20173;-72
2022/11/22 12:30:57;;;;;;;21.67;16.33;;;7.60;99.90;;;;;;6244826;23;20573;-72
2022/11/22 12:33:30;;;;;;;19.55;14.10;;;7.60;99.90;;;;;;6246013;23;20268;-73
2022/11/22 12:35:58;;;;;;;22.85;13.57;;;7.70;99.90;;;;;;6245920;23;20165;-71
2022/11/22 12:38:31;;;;;;;23.58;13.82;;;7.70;99.90;;;;;;6245813;23;20167;-71
2022/11/22 12:41:02;;;;;;;19.65;13.50;;;7.70;99.90;;;;;;6244901;23;20162;-72
2022/11/22 12:43:34;;;;;;;14.70;12.60;;;7.70;99.90;;;;;;6245924;23;20199;-72
2022/11/22 12:46:09;;;;;;;22.60;14.40;;;7.70;99.90;;;;;;6245819;23;20177;-72
2022/11/22 12:48:44;;;;;;;21.42;14.18;;;7.70;99.90;;;;;;6245262;23;20163;-71
2022/11/22 12:51:20;;;;;;;21.88;15.27;;;7.80;99.90;;;;;;6244530;23;20647;-72
2022/11/22 12:53:49;;;;;;;24.40;14.13;;;7.70;99.90;;;;;;6219085;23;20279;-72
2022/11/22 12:56:23;;;;;;;18.85;13.60;;;7.70;99.90;;;;;;6245725;23;20522;-72
2022/11/22 12:58:57;;;;;;;19.52;14.65;;;7.70;99.90;;;;;;6219024;23;20166;-70
2022/11/22 13:01:29;;;;;;;18.55;13.35;;;7.60;99.90;;;;;;6256729;22;20178;-71
2022/11/22 13:04:01;;;;;;;21.67;13.65;;;7.60;99.90;;;;;;6258769;22;20182;-73
2022/11/22 13:06:35;;;;;;;27.13;15.32;;;7.60;99.90;;;;;;6258817;22;20147;-72
2022/11/22 13:09:05;;;;;;;19.88;14.38;;;7.60;99.90;;;;;;6259413;22;20201;-69